createdAt,value
2023-03-03T00:00:11.582Z,102067.89
2023-03-03T00:01:11.848Z,102068.14
2023-03-03T00:02:12.551Z,102067.95
2023-03-03T00:03:12.713Z,102068.34
2023-03-03T00:04:12.698Z,102068.51
2023-03-03T00:05:13.300Z,102068.98
2023-03-03T00:06:13.997Z,102068.98
2023-03-03T00:07:14.708Z,102069.99
2023-03-03T00:08:15.243Z,102071.13
2023-03-03T00:09:15.809Z,102071.47
2023-03-03T00:10:16.634Z,102072.27
2023-03-03T00:11:16.704Z,102072.92
2023-03-03T00:12:17.236Z,102073.33
2023-03-03T00:13:18.003Z,102073.48
2023-03-03T00:14:18.566Z,102074.22
2023-03-03T00:15:19.483Z,102075.13
2023-03-03T00:16:20.131Z,102076.44
2023-03-03T00:16:29.220Z,102115.27
2023-03-03T00:17:29.361Z,102089.11
2023-03-03T00:18:30.261Z,102088.45
2023-03-03T00:19:30.811Z,102088.59
2023-03-03T00:20:31.387Z,102089.27
2023-03-03T00:21:32.045Z,102088.77
2023-03-03T00:22:32.790Z,102088.27
2023-03-03T00:23:33.500Z,102087.75
2023-03-03T00:24:34.193Z,102087.59
2023-03-03T00:25:34.797Z,102087.90
2023-03-03T00:26:35.498Z,102087.58
2023-03-03T00:27:35.877Z,102087.13
2023-03-03T00:28:36.560Z,102087.16
2023-03-03T00:29:37.434Z,102087.23
2023-03-03T00:30:38.037Z,102086.36
2023-03-03T00:31:38.235Z,102085.61
2023-03-03T00:32:38.888Z,102085.26
2023-03-03T00:33:39.797Z,102085.73
2023-03-03T00:34:40.328Z,102085.38
2023-03-03T00:35:41.203Z,102085.13
2023-03-03T00:36:41.753Z,102085.62
2023-03-03T00:37:42.378Z,102085.94
2023-03-03T00:38:42.919Z,102086.51
2023-03-03T00:39:43.580Z,102087.41
2023-03-03T00:40:44.238Z,102087.68
2023-03-03T00:41:44.902Z,102088.25
2023-03-03T00:42:45.598Z,102088.72
2023-03-03T00:43:46.409Z,102089.03
2023-03-03T00:44:46.528Z,102089.84
2023-03-03T00:45:47.698Z,102090.18
2023-03-03T00:46:48.295Z,102090.55
2023-03-03T00:47:48.961Z,102091.23
2023-03-03T00:48:49.926Z,102091.47
2023-03-03T00:49:50.577Z,102092.13
2023-03-03T00:50:51.396Z,102092.47
2023-03-03T00:51:51.440Z,102092.77
2023-03-03T00:52:03.640Z,102069.95
2023-03-03T00:53:04.514Z,102096.94
2023-03-03T00:54:05.211Z,102096.84
2023-03-03T00:55:05.269Z,102097.06
2023-03-03T00:56:06.213Z,102097.31
2023-03-03T00:57:06.841Z,102096.95
2023-03-03T00:58:07.602Z,102096.92
2023-03-03T00:59:08.265Z,102097.27
2023-03-03T01:00:08.327Z,102096.41
2023-03-03T01:01:09.141Z,102096.66
2023-03-03T01:02:09.505Z,102096.72
2023-03-03T01:03:10.151Z,102096.23
2023-03-03T01:04:10.828Z,102096.62
2023-03-03T01:05:11.190Z,102096.20
2023-03-03T01:06:11.952Z,102096.38
2023-03-03T01:07:12.543Z,102097.08
2023-03-03T01:08:13.286Z,102097.06
2023-03-03T01:09:13.856Z,102097.56
2023-03-03T01:10:14.712Z,102097.74
2023-03-03T01:11:15.575Z,102097.95
2023-03-03T01:12:16.190Z,102098.05
2023-03-03T01:13:16.857Z,102098.13
2023-03-03T01:14:17.428Z,102097.59
2023-03-03T01:15:17.946Z,102097.59
2023-03-03T01:16:19.094Z,102098.10
2023-03-03T01:17:19.409Z,102098.08
2023-03-03T01:18:20.090Z,102097.89
2023-03-03T01:19:20.754Z,102097.87
2023-03-03T01:20:21.326Z,102097.19
2023-03-03T01:21:21.978Z,102097.35
2023-03-03T01:22:22.845Z,102097.91
2023-03-03T01:23:23.467Z,102098.19
2023-03-03T01:24:24.204Z,102098.31
2023-03-03T01:24:33.457Z,102111.27
2023-03-03T01:25:33.760Z,102098.94
2023-03-03T01:26:34.525Z,102098.45
2023-03-03T01:27:35.397Z,102098.11
2023-03-03T01:28:36.173Z,102097.38
2023-03-03T01:29:36.445Z,102096.81
2023-03-03T01:30:36.553Z,102096.80
2023-03-03T01:31:37.533Z,102096.50
2023-03-03T01:32:38.365Z,102096.19
2023-03-03T01:33:39.151Z,102095.55
2023-03-03T01:34:39.834Z,102095.66
2023-03-03T01:35:40.431Z,102095.52
2023-03-03T01:36:40.414Z,102095.28
2023-03-03T01:37:41.121Z,102095.30
2023-03-03T01:38:41.703Z,102095.55
2023-03-03T01:39:42.385Z,102095.08
2023-03-03T01:40:42.454Z,102094.91
2023-03-03T01:41:43.050Z,102094.02
2023-03-03T01:42:43.732Z,102094.11
2023-03-03T01:43:44.458Z,102093.95
2023-03-03T01:44:45.327Z,102093.95
2023-03-03T01:45:46.035Z,102093.92
2023-03-03T01:46:46.833Z,102094.41
2023-03-03T01:47:47.338Z,102094.35
2023-03-03T01:48:47.438Z,102094.85
2023-03-03T01:49:48.123Z,102094.66
2023-03-03T01:50:48.752Z,102094.89
2023-03-03T01:51:49.036Z,102095.05
2023-03-03T01:52:49.816Z,102094.56
2023-03-03T01:53:50.425Z,102094.56
2023-03-03T01:54:50.473Z,102094.50
2023-03-03T01:55:50.917Z,102094.30
2023-03-03T01:56:51.343Z,102093.81
2023-03-03T01:57:00.562Z,102100.51
2023-03-03T01:58:00.817Z,102090.83
2023-03-03T01:59:00.860Z,102090.11
2023-03-03T02:00:01.710Z,102089.50
2023-03-03T02:01:01.932Z,102088.78
2023-03-03T02:02:02.642Z,102088.52
2023-03-03T02:03:03.269Z,102088.34
2023-03-03T02:04:03.568Z,102087.66
2023-03-03T02:05:04.262Z,102087.09
2023-03-03T02:06:05.039Z,102087.09
2023-03-03T02:07:05.627Z,102086.22
2023-03-03T02:08:05.948Z,102085.53
2023-03-03T02:09:06.018Z,102084.52
2023-03-03T02:10:06.258Z,102084.35
2023-03-03T02:11:07.068Z,102083.49
2023-03-03T02:12:07.290Z,102082.84
2023-03-03T02:13:07.565Z,102082.31
2023-03-03T02:14:08.411Z,102081.46
2023-03-03T02:15:09.126Z,102081.04
2023-03-03T02:16:09.827Z,102080.61
2023-03-03T02:17:10.657Z,102080.66
2023-03-03T02:18:11.319Z,102079.91
2023-03-03T02:19:11.936Z,102079.98
2023-03-03T02:20:12.702Z,102079.12
2023-03-03T02:21:13.657Z,102079.27
2023-03-03T02:22:14.252Z,102078.94
2023-03-03T02:23:14.381Z,102078.58
2023-03-03T02:24:14.923Z,102078.58
2023-03-03T02:25:15.212Z,102077.89
2023-03-03T02:26:15.371Z,102077.66
2023-03-03T02:27:16.061Z,102078.22
2023-03-03T02:27:25.796Z,102102.83
2023-03-03T02:28:26.723Z,102081.71
2023-03-03T02:29:27.447Z,102081.88
2023-03-03T02:30:28.331Z,102081.97
2023-03-03T02:31:28.729Z,102082.04
2023-03-03T02:32:29.612Z,102082.20
2023-03-03T02:33:30.214Z,102082.70
2023-03-03T02:34:30.640Z,102083.86
2023-03-03T02:35:31.737Z,102084.20
2023-03-03T02:36:32.255Z,102084.60
2023-03-03T02:37:32.409Z,102085.34
2023-03-03T02:38:32.972Z,102085.84
2023-03-03T02:39:33.520Z,102085.64
2023-03-03T02:40:34.100Z,102084.96
2023-03-03T02:41:34.659Z,102085.30
2023-03-03T02:42:34.879Z,102084.77
2023-03-03T02:43:35.619Z,102084.25
2023-03-03T02:44:36.185Z,102084.49
2023-03-03T02:45:36.920Z,102084.80
2023-03-03T02:46:36.922Z,102084.52
2023-03-03T02:47:37.249Z,102084.66
2023-03-03T02:48:37.929Z,102084.54
2023-03-03T02:49:38.618Z,102084.02
2023-03-03T02:50:39.298Z,102083.83
2023-03-03T02:51:39.929Z,102083.23
2023-03-03T02:52:40.587Z,102082.86
2023-03-03T02:53:41.394Z,102082.02
2023-03-03T02:54:42.089Z,102081.49
2023-03-03T02:55:42.209Z,102081.04
2023-03-03T02:56:42.874Z,102080.09
2023-03-03T02:57:43.035Z,102079.56
2023-03-03T02:58:43.902Z,102078.75
2023-03-03T02:59:44.676Z,102078.39
2023-03-03T03:00:45.034Z,102077.94
2023-03-03T03:00:59.217Z,102077.75
2023-03-03T03:01:58.462Z,102077.91
2023-03-03T03:02:59.312Z,102077.26
2023-03-03T03:04:00.297Z,102077.00
2023-03-03T03:05:00.552Z,102076.73
2023-03-03T03:06:01.448Z,102077.30
2023-03-03T03:07:02.417Z,102077.73
2023-03-03T03:08:03.316Z,102078.56
2023-03-03T03:09:04.113Z,102078.72
2023-03-03T03:10:04.681Z,102079.39
2023-03-03T03:11:06.548Z,102079.89
2023-03-03T03:12:06.255Z,102079.95
2023-03-03T03:13:06.892Z,102080.61
2023-03-03T03:14:07.511Z,102080.59
2023-03-03T03:15:08.336Z,102080.86
2023-03-03T03:16:09.222Z,102081.02
2023-03-03T03:17:09.749Z,102080.86
2023-03-03T03:18:10.120Z,102080.42
2023-03-03T03:19:10.721Z,102080.75
2023-03-03T03:20:11.587Z,102080.69
2023-03-03T03:21:12.359Z,102080.92
2023-03-03T03:22:13.226Z,102081.26
2023-03-03T03:23:13.424Z,102081.42
2023-03-03T03:24:14.381Z,102081.19
2023-03-03T03:25:14.579Z,102081.25
2023-03-03T03:26:15.270Z,102081.45
2023-03-03T03:27:16.260Z,102081.05
2023-03-03T03:28:16.878Z,102081.05
2023-03-03T03:29:17.209Z,102080.97
2023-03-03T03:30:17.855Z,102081.23
2023-03-03T03:31:18.382Z,102081.56
2023-03-03T03:32:19.017Z,102081.90
2023-03-03T03:32:28.864Z,102083.30
2023-03-03T03:33:29.283Z,102083.70
2023-03-03T03:34:29.999Z,102084.09
2023-03-03T03:35:30.638Z,102084.03
2023-03-03T03:36:31.367Z,102085.09
2023-03-03T03:37:31.980Z,102085.19
2023-03-03T03:38:32.570Z,102086.05
2023-03-03T03:39:33.377Z,102086.44
2023-03-03T03:40:34.177Z,102087.36
2023-03-03T03:41:34.504Z,102088.29
2023-03-03T03:42:35.352Z,102089.02
2023-03-03T03:43:36.307Z,102090.09
2023-03-03T03:44:36.557Z,102091.18
2023-03-03T03:45:37.559Z,102092.25
2023-03-03T03:46:38.370Z,102093.41
2023-03-03T03:47:38.987Z,102094.80
2023-03-03T03:48:39.553Z,102095.53
2023-03-03T03:49:40.315Z,102096.69
2023-03-03T03:50:40.396Z,102097.69
2023-03-03T03:51:40.958Z,102098.02
2023-03-03T03:52:41.510Z,102098.66
2023-03-03T03:53:42.364Z,102099.48
2023-03-03T03:54:43.357Z,102100.45
2023-03-03T03:55:43.990Z,102100.86
2023-03-03T03:56:44.603Z,102101.43
2023-03-03T03:57:44.973Z,102102.16
2023-03-03T03:58:44.946Z,102102.94
2023-03-03T03:59:45.649Z,102103.28
2023-03-03T04:00:46.520Z,102103.48
2023-03-03T04:01:47.280Z,102103.66
2023-03-03T04:02:48.313Z,102104.22
2023-03-03T04:02:57.651Z,102104.67
2023-03-03T04:03:58.203Z,102104.81
2023-03-03T04:04:59.097Z,102105.45
2023-03-03T04:05:59.209Z,102105.09
2023-03-03T04:06:59.280Z,102105.00
2023-03-03T04:08:00.139Z,102105.41
2023-03-03T04:09:00.688Z,102105.61
2023-03-03T04:10:00.876Z,102104.69
2023-03-03T04:11:00.958Z,102104.79
2023-03-03T04:12:01.632Z,102103.93
2023-03-03T04:13:02.527Z,102103.70
2023-03-03T04:14:02.836Z,102103.10
2023-03-03T04:15:03.115Z,102103.10
2023-03-03T04:16:03.831Z,102102.50
2023-03-03T04:17:04.593Z,102102.27
2023-03-03T04:18:04.863Z,102102.17
2023-03-03T04:19:05.764Z,102102.28
2023-03-03T04:20:06.743Z,102102.61
2023-03-03T04:21:07.318Z,102102.84
2023-03-03T04:22:08.033Z,102103.10
2023-03-03T04:23:08.332Z,102103.63
2023-03-03T04:24:08.911Z,102104.52
2023-03-03T04:25:09.112Z,102104.52
2023-03-03T04:26:09.829Z,102105.28
2023-03-03T04:27:09.858Z,102105.88
2023-03-03T04:28:10.474Z,102105.71
2023-03-03T04:29:11.326Z,102105.88
2023-03-03T04:30:12.163Z,102105.97
2023-03-03T04:31:12.369Z,102106.47
2023-03-03T04:32:13.296Z,102106.37
2023-03-03T04:33:13.954Z,102106.53
2023-03-03T04:33:26.276Z,102088.38
2023-03-03T04:34:27.183Z,102112.16
2023-03-03T04:35:27.851Z,102111.98
2023-03-03T04:36:27.834Z,102111.92
2023-03-03T04:37:28.426Z,102111.52
2023-03-03T04:38:29.105Z,102111.36
2023-03-03T04:39:29.872Z,102111.02
2023-03-03T04:40:30.570Z,102110.09
2023-03-03T04:41:31.222Z,102109.13
2023-03-03T04:42:32.889Z,102108.30
2023-03-03T04:43:32.700Z,102107.40
2023-03-03T04:44:33.274Z,102106.23
2023-03-03T04:45:33.917Z,102105.34
2023-03-03T04:46:34.525Z,102104.84
2023-03-03T04:47:35.087Z,102104.37
2023-03-03T04:48:35.255Z,102103.94
2023-03-03T04:49:35.946Z,102103.78
2023-03-03T04:50:36.621Z,102103.70
2023-03-03T04:51:37.008Z,102103.55
2023-03-03T04:52:37.743Z,102103.45
2023-03-03T04:53:38.440Z,102103.55
2023-03-03T04:54:39.404Z,102103.28
2023-03-03T04:55:40.025Z,102103.22
2023-03-03T04:56:40.656Z,102102.62
2023-03-03T04:57:41.342Z,102102.15
2023-03-03T04:58:42.209Z,102101.61
2023-03-03T04:59:42.666Z,102101.48
2023-03-03T05:00:43.266Z,102101.18
2023-03-03T05:01:43.363Z,102101.07
2023-03-03T05:02:44.201Z,102101.33
2023-03-03T05:03:44.995Z,102101.09
2023-03-03T05:04:45.841Z,102100.83
2023-03-03T05:05:45.902Z,102100.50
2023-03-03T05:05:55.268Z,102098.53
2023-03-03T05:06:55.736Z,102098.46
2023-03-03T05:07:55.939Z,102099.17
2023-03-03T05:08:56.151Z,102099.23
2023-03-03T05:09:56.149Z,102099.08
2023-03-03T05:10:56.523Z,102099.53
2023-03-03T05:11:56.679Z,102099.73
2023-03-03T05:12:57.505Z,102099.98
2023-03-03T05:13:57.955Z,102099.66
2023-03-03T05:14:58.503Z,102099.52
2023-03-03T05:15:58.848Z,102099.54
2023-03-03T05:16:59.560Z,102099.56
2023-03-03T05:18:00.392Z,102099.02
2023-03-03T05:19:01.109Z,102099.37
2023-03-03T05:20:01.383Z,102099.09
2023-03-03T05:21:01.422Z,102099.61
2023-03-03T05:22:01.502Z,102100.23
2023-03-03T05:23:01.734Z,102100.72
2023-03-03T05:24:01.883Z,102101.50
2023-03-03T05:25:01.920Z,102101.17
2023-03-03T05:26:02.716Z,102101.70
2023-03-03T05:27:02.808Z,102101.95
2023-03-03T05:28:03.503Z,102102.47
2023-03-03T05:29:03.941Z,102102.59
2023-03-03T05:30:04.727Z,102103.70
2023-03-03T05:31:05.167Z,102104.06
2023-03-03T05:32:06.128Z,102104.02
2023-03-03T05:33:07.195Z,102104.53
2023-03-03T05:34:06.738Z,102104.48
2023-03-03T05:35:07.538Z,102105.00
2023-03-03T05:36:07.528Z,102105.39
2023-03-03T05:36:17.592Z,102103.75
2023-03-03T05:37:18.440Z,102103.87
2023-03-03T05:38:19.100Z,102103.80
2023-03-03T05:39:21.208Z,102103.31
2023-03-03T05:40:20.271Z,102103.34
2023-03-03T05:41:21.241Z,102102.94
2023-03-03T05:42:21.568Z,102102.80
2023-03-03T05:43:22.208Z,102102.55
2023-03-03T05:44:22.902Z,102101.84
2023-03-03T05:45:23.070Z,102102.10
2023-03-03T05:46:23.173Z,102101.80
2023-03-03T05:47:23.846Z,102101.32
2023-03-03T05:48:24.004Z,102101.27
2023-03-03T05:49:24.616Z,102101.46
2023-03-03T05:50:25.522Z,102101.16
2023-03-03T05:51:26.197Z,102101.34
2023-03-03T05:52:26.350Z,102101.70
2023-03-03T05:53:27.351Z,102101.72
2023-03-03T05:54:28.022Z,102100.98
2023-03-03T05:55:28.543Z,102101.67
2023-03-03T05:56:29.172Z,102101.53
2023-03-03T05:57:29.886Z,102101.88
2023-03-03T05:58:30.138Z,102102.47
2023-03-03T05:59:30.572Z,102103.33
2023-03-03T06:00:30.604Z,102104.17
2023-03-03T06:01:31.578Z,102105.42
2023-03-03T06:02:31.715Z,102107.30
2023-03-03T06:02:42.449Z,102105.99
2023-03-03T06:03:42.350Z,102107.67
2023-03-03T06:04:42.577Z,102108.28
2023-03-03T06:05:43.863Z,102108.97
2023-03-03T06:06:43.521Z,102108.73
2023-03-03T06:07:43.586Z,102109.25
2023-03-03T06:08:44.010Z,102110.10
2023-03-03T06:09:44.850Z,102110.95
2023-03-03T06:10:45.374Z,102112.30
2023-03-03T06:11:45.369Z,102113.81
2023-03-03T06:12:45.782Z,102115.50
2023-03-03T06:13:46.599Z,102117.25
2023-03-03T06:14:47.146Z,102118.59
2023-03-03T06:15:47.453Z,102119.78
2023-03-03T06:16:48.174Z,102121.20
2023-03-03T06:17:49.167Z,102122.72
2023-03-03T06:18:49.914Z,102123.84
2023-03-03T06:19:50.196Z,102124.59
2023-03-03T06:20:51.232Z,102126.27
2023-03-03T06:21:51.263Z,102127.69
2023-03-03T06:22:51.597Z,102129.38
2023-03-03T06:23:51.948Z,102131.22
2023-03-03T06:24:52.595Z,102132.07
2023-03-03T06:25:53.447Z,102133.48
2023-03-03T06:26:53.379Z,102134.59
2023-03-03T06:27:53.950Z,102136.21
2023-03-03T06:28:55.136Z,102137.04
2023-03-03T06:29:54.135Z,102138.23
2023-03-03T06:30:55.121Z,102138.56
2023-03-03T06:31:56.023Z,102139.88
2023-03-03T06:32:56.851Z,102140.91
2023-03-03T06:33:57.131Z,102142.06
2023-03-03T06:34:57.926Z,102142.75
2023-03-03T06:35:09.686Z,102124.34
2023-03-03T06:36:09.872Z,102126.88
2023-03-03T06:37:10.678Z,102128.33
2023-03-03T06:38:11.197Z,102129.84
2023-03-03T06:39:11.367Z,102130.69
2023-03-03T06:40:12.027Z,102131.22
2023-03-03T06:41:12.046Z,102132.63
2023-03-03T06:42:13.013Z,102133.48
2023-03-03T06:43:13.877Z,102134.69
2023-03-03T06:44:14.569Z,102135.11
2023-03-03T06:45:14.670Z,102136.31
2023-03-03T06:46:15.530Z,102137.50
2023-03-03T06:47:17.197Z,102138.45
2023-03-03T06:48:16.765Z,102139.45
2023-03-03T06:49:16.923Z,102140.23
2023-03-03T06:50:17.574Z,102141.83
2023-03-03T06:51:17.722Z,102143.02
2023-03-03T06:52:18.288Z,102144.44
2023-03-03T06:53:19.092Z,102145.52
2023-03-03T06:54:19.810Z,102147.80
2023-03-03T06:55:20.169Z,102149.15
2023-03-03T06:56:20.981Z,102150.90
2023-03-03T06:57:21.533Z,102152.89
2023-03-03T06:58:22.179Z,102154.80
2023-03-03T06:59:22.966Z,102156.39
2023-03-03T07:00:23.279Z,102157.56
2023-03-03T07:01:23.800Z,102158.63
2023-03-03T07:02:23.925Z,102160.38
2023-03-03T07:03:24.636Z,102162.04
2023-03-03T07:04:24.693Z,102162.39
2023-03-03T07:05:25.137Z,102164.12
2023-03-03T07:05:36.898Z,102165.37
2023-03-03T07:06:37.832Z,102166.47
2023-03-03T07:07:38.711Z,102166.97
2023-03-03T07:08:38.800Z,102167.58
2023-03-03T07:09:39.683Z,102168.20
2023-03-03T07:10:40.336Z,102169.55
2023-03-03T07:11:40.350Z,102170.47
2023-03-03T07:12:40.505Z,102171.48
2023-03-03T07:13:41.036Z,102172.59
2023-03-03T07:14:41.549Z,102173.68
2023-03-03T07:15:42.348Z,102175.05
2023-03-03T07:16:42.697Z,102176.23
2023-03-03T07:17:42.530Z,102177.51
2023-03-03T07:18:42.617Z,102178.48
2023-03-03T07:19:43.196Z,102179.98
2023-03-03T07:20:44.193Z,102181.63
2023-03-03T07:21:44.814Z,102182.97
2023-03-03T07:22:45.614Z,102184.06
2023-03-03T07:23:45.622Z,102185.81
2023-03-03T07:24:45.729Z,102187.34
2023-03-03T07:25:46.578Z,102188.42
2023-03-03T07:26:47.513Z,102190.16
2023-03-03T07:27:48.134Z,102191.51
2023-03-03T07:28:48.316Z,102192.93
2023-03-03T07:29:49.045Z,102194.18
2023-03-03T07:30:49.333Z,102195.70
2023-03-03T07:31:49.655Z,102197.22
2023-03-03T07:32:50.139Z,102198.80
2023-03-03T07:32:59.368Z,102196.53
2023-03-03T07:33:59.899Z,102198.45
2023-03-03T07:35:00.163Z,102199.80
2023-03-03T07:36:00.282Z,102200.98
2023-03-03T07:37:00.419Z,102202.33
2023-03-03T07:38:01.130Z,102203.78
2023-03-03T07:39:02.174Z,102205.20
2023-03-03T07:40:03.311Z,102206.52
2023-03-03T07:41:03.334Z,102207.97
2023-03-03T07:42:03.707Z,102209.63
2023-03-03T07:43:03.985Z,102211.14
2023-03-03T07:44:04.976Z,102212.32
2023-03-03T07:45:05.330Z,102213.77
2023-03-03T07:46:06.203Z,102215.61
2023-03-03T07:47:06.768Z,102216.83
2023-03-03T07:48:07.548Z,102218.33
2023-03-03T07:49:07.882Z,102219.94
2023-03-03T07:50:08.401Z,102221.15
2023-03-03T07:51:09.250Z,102222.23
2023-03-03T07:52:09.270Z,102223.52
2023-03-03T07:53:09.302Z,102225.19
2023-03-03T07:54:09.501Z,102226.06
2023-03-03T07:55:11.105Z,102227.08
2023-03-03T07:56:10.090Z,102228.52
2023-03-03T07:57:10.916Z,102229.90
2023-03-03T07:58:11.271Z,102231.24
2023-03-03T07:59:12.264Z,102232.95
2023-03-03T08:00:12.943Z,102235.06
2023-03-03T08:00:25.153Z,102235.41
2023-03-03T08:01:25.185Z,102236.98
2023-03-03T08:02:25.841Z,102237.94
2023-03-03T08:03:26.001Z,102238.72
2023-03-03T08:04:26.483Z,102240.13
2023-03-03T08:05:26.800Z,102240.82
2023-03-03T08:06:27.722Z,102241.27
2023-03-03T08:07:28.425Z,102242.28
2023-03-03T08:08:28.429Z,102242.97
2023-03-03T08:09:30.240Z,102244.31
2023-03-03T08:10:29.901Z,102245.58
2023-03-03T08:11:29.901Z,102247.00
2023-03-03T08:12:30.798Z,102248.33
2023-03-03T08:13:31.320Z,102249.41
2023-03-03T08:14:31.574Z,102249.94
2023-03-03T08:15:31.940Z,102251.09
2023-03-03T08:16:32.454Z,102250.95
2023-03-03T08:17:33.305Z,102251.31
2023-03-03T08:18:34.132Z,102251.47
2023-03-03T08:19:34.682Z,102251.46
2023-03-03T08:20:35.390Z,102251.98
2023-03-03T08:21:35.816Z,102252.41
2023-03-03T08:22:36.618Z,102252.66
2023-03-03T08:23:37.126Z,102252.28
2023-03-03T08:24:38.639Z,102252.06
2023-03-03T08:25:38.636Z,102252.31
2023-03-03T08:26:38.863Z,102252.86
2023-03-03T08:27:39.830Z,102252.78
2023-03-03T08:28:39.891Z,102253.16
2023-03-03T08:29:40.824Z,102253.23
2023-03-03T08:30:41.769Z,102253.53
2023-03-03T08:31:42.291Z,102253.87
2023-03-03T08:31:51.017Z,102252.70
2023-03-03T08:32:51.742Z,102253.91
2023-03-03T08:33:52.422Z,102254.02
2023-03-03T08:34:52.653Z,102254.49
2023-03-03T08:35:53.175Z,102254.59
2023-03-03T08:36:53.766Z,102255.06
2023-03-03T08:37:54.435Z,102255.77
2023-03-03T08:38:55.053Z,102256.44
2023-03-03T08:39:55.857Z,102257.41
2023-03-03T08:40:55.533Z,102257.92
2023-03-03T08:41:56.145Z,102259.02
2023-03-03T08:42:57.024Z,102259.31
2023-03-03T08:43:57.812Z,102259.75
2023-03-03T08:44:57.925Z,102260.19
2023-03-03T08:45:57.985Z,102260.48
2023-03-03T08:46:58.960Z,102260.69
2023-03-03T08:47:59.774Z,102260.89
2023-03-03T08:49:00.412Z,102261.33
2023-03-03T08:50:01.018Z,102261.70
2023-03-03T08:51:01.635Z,102262.30
2023-03-03T08:52:02.300Z,102263.51
2023-03-03T08:53:03.214Z,102264.55
2023-03-03T08:54:03.929Z,102264.98
2023-03-03T08:55:04.691Z,102265.91
2023-03-03T08:56:04.867Z,102266.53
2023-03-03T08:57:05.676Z,102267.50
2023-03-03T08:58:06.376Z,102267.63
2023-03-03T08:59:07.233Z,102268.23
2023-03-03T09:00:07.255Z,102269.00
2023-03-03T09:01:08.147Z,102270.27
2023-03-03T09:02:08.890Z,102271.22
2023-03-03T09:03:09.310Z,102272.23
2023-03-03T09:03:18.065Z,102269.97
2023-03-03T09:04:18.085Z,102271.84
2023-03-03T09:05:18.753Z,102273.62
2023-03-03T09:06:19.610Z,102275.30
2023-03-03T09:07:19.590Z,102277.00
2023-03-03T09:08:20.331Z,102278.67
2023-03-03T09:09:20.509Z,102280.35
2023-03-03T09:10:21.387Z,102281.55
2023-03-03T09:11:22.434Z,102283.23
2023-03-03T09:12:22.434Z,102284.94
2023-03-03T09:13:23.109Z,102285.95
2023-03-03T09:14:23.956Z,102287.37
2023-03-03T09:15:24.744Z,102288.72
2023-03-03T09:16:25.570Z,102289.73
2023-03-03T09:17:26.108Z,102291.51
2023-03-03T09:18:26.892Z,102293.09
2023-03-03T09:19:27.532Z,102294.37
2023-03-03T09:20:27.754Z,102296.38
2023-03-03T09:21:27.970Z,102297.48
2023-03-03T09:22:28.652Z,102299.27
2023-03-03T09:23:29.037Z,102300.19
2023-03-03T09:24:29.703Z,102301.97
2023-03-03T09:25:29.820Z,102303.20
2023-03-03T09:26:30.678Z,102303.98
2023-03-03T09:27:31.332Z,102305.41
2023-03-03T09:28:31.968Z,102306.33
2023-03-03T09:29:32.539Z,102307.17
2023-03-03T09:30:33.338Z,102308.03
2023-03-03T09:31:34.161Z,102309.30
2023-03-03T09:32:34.812Z,102309.96
2023-03-03T09:33:34.807Z,102310.98
2023-03-03T09:34:35.120Z,102311.59
2023-03-03T09:34:45.808Z,102307.73
2023-03-03T09:35:46.448Z,102308.65
2023-03-03T09:36:47.157Z,102309.73
2023-03-03T09:37:47.900Z,102310.83
2023-03-03T09:38:48.243Z,102312.73
2023-03-03T09:39:48.997Z,102314.08
2023-03-03T09:40:49.654Z,102315.32
2023-03-03T09:41:49.918Z,102317.06
2023-03-03T09:42:50.502Z,102318.03
2023-03-03T09:43:51.333Z,102319.20
2023-03-03T09:44:51.962Z,102320.89
2023-03-03T09:45:52.790Z,102321.72
2023-03-03T09:46:53.833Z,102322.73
2023-03-03T09:47:54.138Z,102323.34
2023-03-03T09:48:54.189Z,102324.42
2023-03-03T09:49:54.897Z,102325.02
2023-03-03T09:50:55.576Z,102325.54
2023-03-03T09:51:56.629Z,102326.39
2023-03-03T09:52:56.659Z,102326.81
2023-03-03T09:53:57.257Z,102327.56
2023-03-03T09:54:57.505Z,102327.83
2023-03-03T09:55:58.402Z,102328.58
2023-03-03T09:56:58.904Z,102328.77
2023-03-03T09:58:10.065Z,102330.09
2023-03-03T09:58:59.036Z,102331.52
2023-03-03T10:00:00.031Z,102332.11
2023-03-03T10:01:00.827Z,102332.53
2023-03-03T10:02:00.922Z,102333.12
2023-03-03T10:03:01.104Z,102333.81
2023-03-03T10:04:01.112Z,102334.73
2023-03-03T10:05:01.859Z,102335.49
2023-03-03T10:06:01.903Z,102336.09
2023-03-03T10:06:14.139Z,102333.12
2023-03-03T10:07:14.321Z,102334.39
2023-03-03T10:08:15.148Z,102335.31
2023-03-03T10:09:15.974Z,102336.42
2023-03-03T10:10:16.699Z,102336.60
2023-03-03T10:11:17.632Z,102337.19
2023-03-03T10:12:17.961Z,102337.59
2023-03-03T10:13:18.324Z,102338.87
2023-03-03T10:14:19.180Z,102338.80
2023-03-03T10:15:19.887Z,102339.07
2023-03-03T10:16:20.812Z,102339.73
2023-03-03T10:17:21.625Z,102339.77
2023-03-03T10:18:21.617Z,102339.23
2023-03-03T10:19:22.519Z,102339.09
2023-03-03T10:20:23.482Z,102339.22
2023-03-03T10:21:24.170Z,102339.24
2023-03-03T10:22:24.877Z,102339.60
2023-03-03T10:23:25.693Z,102340.39
2023-03-03T10:24:26.376Z,102341.00
2023-03-03T10:25:26.541Z,102341.82
2023-03-03T10:26:42.197Z,102342.34
2023-03-03T10:27:27.387Z,102343.22
2023-03-03T10:28:28.140Z,102343.75
2023-03-03T10:29:30.732Z,102343.87
2023-03-03T10:30:39.893Z,102345.22
2023-03-03T10:31:30.030Z,102346.52
2023-03-03T10:32:30.884Z,102347.80
2023-03-03T10:33:31.179Z,102348.73
2023-03-03T10:34:31.207Z,102349.93
2023-03-03T10:35:31.938Z,102351.45
2023-03-03T10:36:32.245Z,102353.32
2023-03-03T10:36:41.923Z,102345.87
2023-03-03T10:37:40.938Z,102348.23
2023-03-03T10:38:41.813Z,102350.23
2023-03-03T10:39:42.789Z,102352.26
2023-03-03T10:40:43.604Z,102353.95
2023-03-03T10:41:44.547Z,102355.91
2023-03-03T10:42:45.133Z,102357.45
2023-03-03T10:43:45.927Z,102359.37
2023-03-03T10:44:45.948Z,102361.16
2023-03-03T10:45:46.083Z,102362.67
2023-03-03T10:46:46.869Z,102364.12
2023-03-03T10:47:47.514Z,102365.55
2023-03-03T10:48:48.386Z,102367.08
2023-03-03T10:49:48.553Z,102368.95
2023-03-03T10:50:49.233Z,102370.38
2023-03-03T10:51:50.147Z,102372.09
2023-03-03T10:52:50.698Z,102373.25
2023-03-03T10:53:51.283Z,102374.42
2023-03-03T10:54:51.333Z,102376.36
2023-03-03T10:55:52.260Z,102377.98
2023-03-03T10:56:53.958Z,102379.25
2023-03-03T10:57:53.484Z,102380.76
2023-03-03T10:58:53.874Z,102382.10
2023-03-03T10:59:54.547Z,102383.62
2023-03-03T11:00:55.606Z,102384.47
2023-03-03T11:01:56.544Z,102385.13
2023-03-03T11:02:57.200Z,102386.58
2023-03-03T11:03:57.844Z,102387.91
2023-03-03T11:04:57.687Z,102388.66
2023-03-03T11:05:57.973Z,102390.19
2023-03-03T11:06:58.713Z,102391.35
2023-03-03T11:07:59.017Z,102392.69
2023-03-03T11:08:09.051Z,102392.64
2023-03-03T11:09:09.280Z,102393.98
2023-03-03T11:10:09.529Z,102395.17
2023-03-03T11:11:10.417Z,102396.02
2023-03-03T11:12:11.186Z,102397.10